Time;durP1;ratioP1;P1;durP2;ratioP2;P2;SDS_P1;SDS_P2;PMS_P1;PMS_P2;Temp;Humidity;BMP_temperature;BMP_pressure;BME280_temperature;BME280_humidity;BME280_pressure;Samples;Min_cycle;Max_cycle;Signal;HPM_P1;HPM_P2
2023/04/05 00:00:14;;;;;;;4.53;3.37;;;0.70;51.60;;;0.38;55.71;98569.41;4997001;28;20842;-80
2023/04/05 00:02:43;;;;;;;4.53;3.00;;;0.70;51.70;;;0.36;56.05;98561.56;4989386;28;20520;-79
2023/04/05 00:05:11;;;;;;;6.30;3.20;;;0.70;51.90;;;0.46;55.81;98561.59;4993705;28;20501;-82
2023/04/05 00:07:38;;;;;;;3.33;3.03;;;0.70;51.80;;;0.09;55.97;98528.50;4986362;28;20466;-81
2023/04/05 00:10:06;;;;;;;7.13;3.60;;;0.70;51.80;;;0.32;55.93;98559.31;4993855;28;20443;-80
2023/04/05 00:12:34;;;;;;;5.00;3.60;;;0.70;51.90;;;0.49;55.98;98561.31;4972456;28;20511;-80
2023/04/05 00:15:02;;;;;;;4.73;3.70;;;0.70;52.20;;;0.46;55.65;98550.97;4993849;28;20455;-81
2023/04/05 00:17:30;;;;;;;3.43;2.83;;;0.60;52.20;;;0.36;55.88;98544.78;4978807;28;20455;-79
2023/04/05 00:19:59;;;;;;;3.70;2.83;;;0.60;51.90;;;0.36;55.37;98528.81;4986795;28;20947;-79
2023/04/05 00:22:30;;;;;;;3.63;3.33;;;0.60;52.00;;;0.35;56.00;98533.31;4974343;28;20463;-82
2023/04/05 00:24:57;;;;;;;4.67;2.93;;;0.50;52.10;;;0.18;55.70;98548.09;4989450;28;20608;-80
2023/04/05 00:27:25;;;;;;;3.97;3.00;;;0.50;52.20;;;0.16;55.33;98534.09;4990151;28;20455;-80
2023/04/05 00:29:52;;;;;;;5.50;3.60;;;0.50;52.00;;;0.12;55.78;98528.22;4972163;28;20861;-80
2023/04/05 00:32:19;;;;;;;3.53;3.10;;;0.40;52.10;;;0.14;56.15;98530.75;4994321;28;20455;-80
2023/04/05 00:34:47;;;;;;;3.00;2.80;;;0.40;52.20;;;0.03;56.52;98545.00;4990734;28;20491;-81
2023/04/05 00:37:16;;;;;;;4.80;3.33;;;0.40;52.20;;;-0.02;56.19;98529.44;4975499;28;20467;-81
2023/04/05 00:39:44;;;;;;;3.73;2.77;;;0.30;52.20;;;-0.07;56.88;98534.34;4993576;28;20456;-81
2023/04/05 00:42:11;;;;;;;4.07;3.13;;;0.30;52.20;;;-0.13;56.66;98534.03;4977498;28;20486;-79
2023/04/05 00:44:40;;;;;;;6.53;3.30;;;0.20;52.30;;;-0.13;56.76;98534.03;4978259;28;20482;-80
2023/04/05 00:47:08;;;;;;;4.10;2.83;;;0.20;52.60;;;-0.08;57.20;98537.13;4994353;28;20459;-81
2023/04/05 00:49:36;;;;;;;5.00;3.70;;;0.20;52.90;;;-0.09;57.36;98530.13;4960211;28;20459;-82
2023/04/05 00:52:04;;;;;;;5.80;4.60;;;0.00;52.90;;;-0.11;56.92;98534.72;4991319;28;20447;-85
2023/04/05 00:54:33;;;;;;;3.53;3.07;;;-0.10;53.40;;;-0.31;58.08;98516.91;4990802;28;20452;-82
2023/04/05 00:57:01;;;;;;;6.10;3.47;;;-0.10;53.80;;;-0.23;58.09;98528.66;4993122;28;20546;-81
2023/04/05 00:59:28;;;;;;;3.73;3.20;;;-0.10;54.10;;;-0.39;58.50;98524.69;4989268;28;20464;-80
2023/04/05 01:02:01;;;;;;;4.80;3.57;;;-0.20;54.30;;;-0.43;58.03;98518.81;4992368;28;20451;-81
2023/04/05 01:04:31;;;;;;;6.97;3.97;;;-0.20;54.30;;;-0.37;58.52;98520.09;4975904;28;20483;-81
2023/04/05 01:07:07;;;;;;;5.77;3.97;;;-0.20;54.50;;;-0.40;58.82;98517.69;4986845;28;20461;-85
2023/04/05 01:09:45;;;;;;;4.00;3.57;;;-0.30;54.90;;;-0.39;59.18;98519.38;4968139;28;20478;-83
2023/04/05 01:12:18;;;;;;;5.47;3.50;;;-0.40;55.40;;;-0.62;59.19;98508.94;4990031;28;20451;-81
2023/04/05 01:14:48;;;;;;;5.50;3.90;;;-0.50;55.80;;;-0.71;60.15;98507.06;4992022;28;20452;-80
2023/04/05 01:17:20;;;;;;;3.80;2.90;;;-0.40;56.10;;;-0.62;60.08;98511.59;4994071;28;20462;-79
2023/04/05 01:19:52;;;;;;;4.77;3.43;;;-0.40;56.10;;;-0.61;59.97;98505.31;4993879;28;20478;-82
2023/04/05 01:22:57;;;;;;;3.97;3.30;;;-0.50;56.50;;;-0.65;60.01;98493.28;4972158;28;20494;-84
2023/04/05 01:25:58;;;;;;;6.13;3.30;;;-0.50;56.70;;;-0.68;60.18;98496.22;4986971;28;20482;-79
2023/04/05 01:29:03;;;;;;;6.70;3.60;;;-0.60;57.10;;;-0.75;60.44;98495.03;4959991;28;20541;-81
2023/04/05 01:31:41;;;;;;;5.87;3.30;;;-0.60;57.50;;;-0.80;60.11;98483.97;4958584;28;20459;-80
2023/04/05 01:34:20;;;;;;;5.83;3.43;;;-0.70;57.70;;;-0.81;60.73;98490.25;4974347;28;20530;-81
2023/04/05 01:36:55;;;;;;;5.10;3.60;;;-0.70;57.80;;;-0.90;60.66;98481.28;4975828;28;20522;-82
2023/04/05 01:39:24;;;;;;;4.60;3.20;;;-0.90;58.30;;;-0.95;60.74;98471.06;4974409;28;20455;-82
2023/04/05 01:41:51;;;;;;;3.37;3.07;;;-0.90;59.20;;;-1.03;60.80;98457.59;4987676;28;20457;-77
2023/04/05 01:44:19;;;;;;;3.40;2.70;;;-0.90;59.00;;;-0.94;61.35;98478.03;4968949;28;20483;-88
2023/04/05 01:46:47;;;;;;;3.53;2.93;;;-1.00;59.60;;;-0.94;60.95;98470.09;4969596;28;20812;-81
2023/04/05 01:49:15;;;;;;;5.63;3.10;;;-0.90;59.90;;;-1.12;61.49;98453.09;4989814;28;20484;-79
2023/04/05 01:51:42;;;;;;;5.83;3.50;;;-1.00;59.90;;;-1.04;61.34;98462.06;4988361;28;20461;-78
2023/04/05 01:54:09;;;;;;;4.20;3.80;;;-1.00;60.80;;;-1.05;61.84;98465.69;4971726;28;20452;-75
2023/04/05 01:56:37;;;;;;;4.77;3.60;;;-1.00;61.50;;;-1.07;62.33;98462.31;4990541;28;20447;-79
2023/04/05 01:59:04;;;;;;;4.53;3.50;;;-1.00;61.70;;;-1.10;62.16;98459.91;4988110;28;20488;-80
2023/04/05 02:01:31;;;;;;;5.10;3.50;;;-1.00;62.10;;;-1.20;62.03;98441.28;4988000;28;20510;-77
2023/04/05 02:04:02;;;;;;;4.50;4.07;;;-1.00;62.30;;;-1.05;62.53;98470.16;4983722;28;20519;-83
2023/04/05 02:06:30;;;;;;;5.47;3.60;;;-1.00;62.30;;;-1.22;63.02;98458.31;4986182;28;20508;-75
2023/04/05 02:08:58;;;;;;;4.97;4.23;;;-1.10;63.00;;;-1.18;63.25;98476.47;4985405;28;20542;-75
2023/04/05 02:11:25;;;;;;;4.30;3.50;;;-1.20;64.00;;;-1.13;62.97;98468.13;4984501;28;20549;-76
2023/04/05 02:13:52;;;;;;;5.20;4.00;;;-1.10;64.10;;;-1.48;62.62;98422.41;4970393;28;20510;-76
2023/04/05 02:16:22;;;;;;;4.20;3.80;;;-1.10;64.00;;;-1.19;62.98;98469.50;4983894;28;20460;-78
2023/04/05 02:18:49;;;;;;;5.37;4.13;;;-1.10;64.00;;;-1.24;63.31;98469.06;4988674;28;20962;-79
2023/04/05 02:21:20;;;;;;;4.23;3.83;;;-1.10;64.30;;;-1.21;62.92;98473.28;4988941;28;20479;-75
2023/04/05 02:23:48;;;;;;;5.50;4.00;;;-1.10;64.40;;;-1.25;62.99;98475.31;4985682;28;20462;-76
2023/04/05 02:26:15;;;;;;;4.53;3.30;;;-1.10;64.20;;;-1.25;62.85;98475.31;4987016;28;20506;-76
2023/04/05 02:28:42;;;;;;;4.03;3.60;;;-1.10;64.30;;;-1.24;62.86;98470.84;4968872;28;20446;-75
2023/04/05 02:31:10;;;;;;;5.50;3.80;;;-1.10;64.60;;;-1.23;63.05;98467.22;4986297;28;20487;-80
2023/04/05 02:33:38;;;;;;;4.77;3.20;;;-1.10;64.80;;;-1.28;63.29;98470.28;4987111;28;20469;-79
2023/04/05 02:36:08;;;;;;;5.70;4.30;;;-1.10;64.80;;;-1.27;62.90;98471.97;4979638;28;20473;-81
2023/04/05 02:38:36;;;;;;;6.30;4.30;;;-1.20;64.70;;;-1.53;63.70;98429.91;4985303;28;20449;-76
2023/04/05 02:41:04;;;;;;;4.53;3.90;;;-1.20;65.30;;;-1.44;63.98;98471.56;4989833;28;20452;-78
2023/04/05 02:43:32;;;;;;;4.83;3.40;;;-1.40;65.70;;;-1.44;63.87;98468.91;4968946;28;21122;-77
2023/04/05 02:46:00;;;;;;;4.37;3.47;;;-1.40;66.10;;;-1.46;63.90;98462.88;4966873;28;20512;-79
2023/04/05 02:48:27;;;;;;;5.80;3.63;;;-1.40;66.50;;;-1.44;63.94;98455.66;4989676;28;20474;-77
2023/04/05 02:50:54;;;;;;;4.20;3.70;;;-1.40;66.70;;;-1.45;63.76;98464.56;4985523;28;20999;-80
2023/04/05 02:53:21;;;;;;;6.17;3.83;;;-1.40;66.40;;;-1.62;63.89;98454.53;4971356;28;20455;-77
2023/04/05 02:55:54;;;;;;;6.10;4.50;;;-1.50;66.30;;;-1.55;63.98;98460.16;4980612;28;20463;-80
2023/04/05 02:58:22;;;;;;;4.60;3.40;;;-1.50;67.10;;;-1.64;64.39;98462.63;4987394;28;20519;-74
2023/04/05 03:00:51;;;;;;;4.60;3.77;;;-1.50;66.90;;;-1.67;64.53;98462.84;4976539;28;20458;-75
2023/04/05 03:03:19;;;;;;;4.40;3.50;;;-1.60;67.30;;;-1.62;64.72;98457.16;4965330;28;20975;-78
2023/04/05 03:05:48;;;;;;;5.80;4.13;;;-1.60;67.50;;;-1.54;64.47;98462.69;4967032;28;20565;-78
2023/04/05 03:08:18;;;;;;;7.90;3.63;;;-1.50;67.70;;;-1.53;64.22;98460.88;4982500;28;20463;-76
2023/04/05 03:10:46;;;;;;;4.80;3.60;;;-1.50;67.60;;;-1.59;64.39;98457.78;4987825;28;20485;-76
2023/04/05 03:13:15;;;;;;;4.80;3.97;;;-1.50;67.30;;;-1.57;64.39;98450.53;4972948;28;20455;-83
2023/04/05 03:15:42;;;;;;;5.40;3.60;;;-1.40;67.40;;;-1.61;64.13;98450.91;4984432;28;20487;-83
2023/04/05 03:18:10;;;;;;;4.60;3.90;;;-1.40;67.50;;;-1.57;64.54;98455.00;4989339;28;20530;-80
2023/04/05 03:20:39;;;;;;;5.10;3.57;;;-1.40;67.50;;;-1.58;64.61;98454.16;4990901;28;20458;-77
2023/04/05 03:23:07;;;;;;;6.60;4.53;;;-1.60;67.60;;;-1.62;64.13;98449.22;4973049;28;20502;-85
2023/04/05 03:25:36;;;;;;;4.10;3.70;;;-1.60;67.80;;;-1.67;63.91;98441.66;4965791;28;20872;-77
2023/04/05 03:28:04;;;;;;;5.37;4.10;;;-1.50;67.40;;;-1.66;64.74;98446.00;4973855;28;20455;-77
2023/04/05 03:30:33;;;;;;;4.60;4.10;;;-1.50;67.90;;;-1.71;64.19;98435.78;4991898;28;20546;-75
2023/04/05 03:33:01;;;;;;;5.93;3.30;;;-1.50;67.80;;;-1.69;64.33;98446.25;4975437;28;20454;-77
2023/04/05 03:35:29;;;;;;;8.67;3.50;;;-1.50;67.90;;;-1.67;64.78;98448.78;4992635;28;20447;-75
2023/04/05 03:37:56;;;;;;;5.67;3.77;;;-1.50;67.80;;;-1.71;64.21;98443.72;4990047;28;20466;-79
2023/04/05 03:40:24;;;;;;;9.83;4.70;;;-1.60;67.70;;;-1.72;64.46;98451.78;4984363;28;20483;-77
2023/04/05 03:42:51;;;;;;;6.63;3.60;;;-1.60;68.00;;;-1.79;64.76;98447.97;4972327;28;20467;-76
2023/04/05 03:45:19;;;;;;;5.07;3.80;;;-1.70;68.00;;;-1.88;64.98;98438.97;4987905;28;20490;-78
2023/04/05 03:47:48;;;;;;;4.40;4.00;;;-1.70;68.50;;;-1.76;64.53;98453.84;4989875;28;20456;-77
2023/04/05 03:50:15;;;;;;;6.20;3.80;;;-1.70;68.30;;;-1.76;65.08;98453.03;4989910;28;20450;-79
2023/04/05 03:52:42;;;;;;;4.80;3.97;;;-1.70;68.30;;;-1.83;64.76;98455.34;4965898;28;20851;-77
2023/04/05 03:55:12;;;;;;;4.10;3.70;;;-1.70;68.40;;;-1.94;65.09;98442.13;4973614;28;20932;-77
2023/04/05 03:57:40;;;;;;;4.20;3.50;;;-1.80;68.60;;;-1.90;65.26;98459.44;4988351;28;20510;-80
2023/04/05 04:00:13;;;;;;;5.97;4.03;;;-1.80;68.80;;;-1.98;65.22;98452.13;4986413;28;21038;-76
2023/04/05 04:02:43;;;;;;;4.70;4.10;;;-1.90;69.00;;;-2.13;65.52;98464.81;4988289;28;20466;-79
2023/04/05 04:05:12;;;;;;;5.93;4.20;;;-2.00;69.20;;;-2.28;66.75;98462.41;4962753;28;20477;-78
2023/04/05 04:07:41;;;;;;;6.87;3.73;;;-2.20;69.80;;;-2.25;66.27;98460.47;4990357;28;20462;-78
2023/04/05 04:10:10;;;;;;;4.90;3.60;;;-2.30;70.50;;;-2.35;66.96;98463.03;4972712;28;20965;-79
2023/04/05 04:12:38;;;;;;;5.73;3.20;;;-2.30;70.90;;;-2.28;66.33;98457.13;4989088;28;20490;-80
2023/04/05 04:15:07;;;;;;;4.50;3.80;;;-2.30;71.20;;;-2.21;66.03;98456.63;4986262;28;20463;-81
2023/04/05 04:17:36;;;;;;;7.03;4.10;;;-2.20;70.70;;;-2.13;65.76;98451.56;4970339;28;20439;-77
2023/04/05 04:20:09;;;;;;;5.60;3.80;;;-2.10;70.50;;;-2.02;65.08;98446.25;4975547;28;20845;-75
2023/04/05 04:22:39;;;;;;;5.30;3.90;;;-2.00;70.30;;;-2.04;65.71;98447.31;4975275;28;20454;-77
2023/04/05 04:25:09;;;;;;;6.10;4.30;;;-1.90;69.90;;;-2.01;65.12;98445.28;4995378;28;20477;-77
2023/04/05 04:27:39;;;;;;;5.33;3.70;;;-1.90;69.90;;;-2.07;65.43;98442.28;4995274;28;20465;-78
2023/04/05 04:30:09;;;;;;;6.00;4.03;;;-1.80;70.00;;;-1.97;65.88;98450.31;4993983;28;20542;-78
2023/04/05 04:32:53;;;;;;;7.83;4.23;;;-1.80;69.90;;;-1.97;65.54;98447.66;4962476;28;20945;-77
2023/04/05 04:35:23;;;;;;;9.70;4.23;;;-1.80;69.80;;;-1.93;65.18;98451.75;4975419;28;20601;-77
2023/04/05 04:37:58;;;;;;;5.30;3.90;;;-1.80;69.80;;;-1.98;65.25;98451.28;4991376;28;20450;-78
2023/04/05 04:40:31;;;;;;;7.00;4.03;;;-1.80;69.80;;;-1.96;65.37;98449.34;4994065;28;20453;-76
2023/04/05 04:42:58;;;;;;;6.83;4.63;;;-1.80;69.80;;;-1.96;65.44;98441.41;4977670;28;20943;-77
2023/04/05 04:45:26;;;;;;;5.03;4.50;;;-1.80;69.50;;;-2.02;65.66;98440.94;4995035;28;20463;-80
2023/04/05 04:47:53;;;;;;;4.73;4.10;;;-1.90;69.80;;;-1.95;65.38;98445.72;4987513;28;20457;-75
2023/04/05 04:50:21;;;;;;;6.70;4.63;;;-1.90;69.80;;;-1.96;64.78;98438.75;4991144;28;20487;-77
2023/04/05 04:52:48;;;;;;;4.13;3.57;;;-1.80;69.70;;;-1.92;64.99;98445.47;4983454;28;20469;-77
2023/04/05 04:55:17;;;;;;;7.37;4.20;;;-1.70;69.60;;;-1.97;64.72;98437.06;4989945;28;20486;-77
2023/04/05 04:57:44;;;;;;;5.07;4.03;;;-1.70;69.40;;;-1.83;64.94;98447.38;4988631;28;20541;-76
2023/04/05 05:00:15;;;;;;;3.43;3.10;;;-1.60;69.30;;;-1.77;64.91;98449.53;4989140;28;20466;-78
2023/04/05 05:02:43;;;;;;;5.67;4.00;;;-1.60;69.20;;;-1.62;64.34;98450.06;4984938;28;20451;-80
2023/04/05 05:05:11;;;;;;;5.60;3.70;;;-1.50;69.10;;;-1.25;63.29;98445.31;4985628;28;20564;-78
2023/04/05 05:07:40;;;;;;;5.17;3.73;;;-1.20;69.00;;;-0.80;62.29;98458.28;4989881;28;20457;-81
2023/04/05 05:10:10;;;;;;;5.50;4.03;;;-0.70;68.60;;;-0.61;61.27;98451.38;4989109;28;20495;-76
2023/04/05 05:12:39;;;;;;;8.07;4.40;;;-0.20;66.60;;;-0.10;59.86;98475.31;4973691;28;20459;-78
2023/04/05 05:15:08;;;;;;;7.13;5.10;;;0.30;66.10;;;0.31;59.08;98451.31;4989513;28;20453;-77
2023/04/05 05:17:36;;;;;;;6.57;4.40;;;0.70;65.00;;;0.73;57.87;98455.50;4964124;28;20476;-78
2023/04/05 05:20:09;;;;;;;5.00;4.00;;;1.10;63.30;;;0.70;56.45;98430.03;4981096;28;20955;-79
2023/04/05 05:22:37;;;;;;;6.20;4.40;;;1.40;61.40;;;0.56;57.24;98461.41;4982251;28;21047;-77
2023/04/05 05:25:06;;;;;;;5.40;3.93;;;1.20;60.40;;;0.53;56.71;98448.41;4986222;28;20531;-76
2023/04/05 05:27:33;;;;;;;5.87;4.80;;;1.40;59.70;;;0.76;56.37;98458.72;4989055;28;20927;-76
2023/04/05 05:30:02;;;;;;;7.97;4.70;;;1.60;59.20;;;-0.05;57.67;98446.50;4984686;28;20465;-79
2023/04/05 05:32:30;;;;;;;6.27;4.43;;;1.30;58.60;;;-0.02;58.06;98463.03;4989636;28;20505;-79
2023/04/05 05:34:57;;;;;;;7.03;4.00;;;0.80;59.40;;;-0.05;59.29;98468.63;4988041;28;20499;-77
2023/04/05 05:37:30;;;;;;;6.33;5.10;;;0.40;61.00;;;-0.79;60.97;98400.75;4978446;28;20521;-77
2023/04/05 05:39:58;;;;;;;5.63;3.97;;;0.00;62.00;;;-0.41;59.96;98462.09;4988427;28;20484;-80
2023/04/05 05:42:26;;;;;;;6.53;4.63;;;-0.20;63.10;;;-0.52;59.89;98455.88;4980959;28;20559;-78
2023/04/05 05:44:53;;;;;;;8.37;5.00;;;-0.20;63.50;;;-0.49;60.83;98454.78;4983292;28;20561;-79
2023/04/05 05:47:22;;;;;;;6.30;4.67;;;-0.30;64.30;;;-0.23;60.10;98472.88;4986674;28;20495;-80
2023/04/05 05:49:49;;;;;;;6.80;4.20;;;-0.20;64.00;;;-0.15;59.63;98476.56;4964526;28;20477;-79
2023/04/05 05:52:17;;;;;;;6.90;4.90;;;-0.10;63.80;;;-0.04;59.05;98480.94;4980078;28;20523;-80
2023/04/05 05:54:44;;;;;;;7.50;4.50;;;0.00;63.70;;;0.04;59.43;98479.38;4962705;28;20460;-75
2023/04/05 05:57:11;;;;;;;8.83;4.30;;;0.10;63.80;;;0.28;59.01;98486.97;4979472;28;20453;-77
2023/04/05 05:59:40;;;;;;;4.63;4.17;;;0.30;64.00;;;0.20;58.04;98482.34;4977358;28;20473;-76
2023/04/05 06:02:07;;;;;;;6.70;4.60;;;0.40;62.80;;;0.42;57.67;98483.91;4983994;28;20456;-77
2023/04/05 06:04:36;;;;;;;7.63;4.50;;;0.50;62.40;;;0.58;56.92;98484.34;4966899;28;20941;-75
2023/04/05 06:07:04;;;;;;;6.80;4.03;;;0.60;62.00;;;0.54;56.93;98479.31;4965004;28;20496;-77
2023/04/05 06:09:32;;;;;;;4.70;4.20;;;0.70;61.30;;;0.23;56.85;98444.88;4963595;28;20510;-77
2023/04/05 06:11:59;;;;;;;7.30;4.40;;;0.80;60.80;;;0.67;56.50;98478.19;4970337;28;20464;-73
2023/04/05 06:14:28;;;;;;;5.93;4.20;;;0.90;60.60;;;0.70;56.20;98477.91;4967161;28;20452;-77
2023/04/05 06:16:55;;;;;;;5.40;4.40;;;1.00;60.10;;;1.06;55.67;98472.81;4970869;28;20488;-73
2023/04/05 06:19:22;;;;;;;4.00;3.63;;;1.10;59.80;;;0.94;55.53;98477.47;4969672;28;20805;-72
2023/04/05 06:21:51;;;;;;;5.13;4.20;;;1.20;59.50;;;0.73;55.89;98485.59;4985386;28;20463;-72
2023/04/05 06:24:19;;;;;;;5.60;3.87;;;1.10;58.90;;;0.68;56.06;98482.50;4965524;28;21723;-74
2023/04/05 06:26:47;;;;;;;8.60;4.50;;;1.10;59.10;;;0.96;55.38;98482.63;4983761;28;20570;-72
2023/04/05 06:29:14;;;;;;;5.50;3.97;;;1.20;59.00;;;0.49;56.15;98481.53;4988327;28;20456;-73
2023/04/05 06:31:42;;;;;;;6.10;4.50;;;1.00;58.30;;;0.63;55.65;98472.31;4968037;28;20452;-73
2023/04/05 06:34:10;;;;;;;6.57;4.17;;;1.00;58.40;;;0.73;55.93;98469.66;4983618;28;20831;-71
2023/04/05 06:36:37;;;;;;;5.60;4.17;;;1.00;58.30;;;1.00;55.37;98476.06;4966739;28;20448;-74
2023/04/05 06:39:06;;;;;;;5.40;3.90;;;1.20;58.40;;;1.10;54.26;98471.53;4986188;28;20456;-71
2023/04/05 06:41:33;;;;;;;4.47;4.07;;;1.40;57.90;;;1.04;54.97;98482.78;4978985;28;20953;-76
2023/04/05 06:44:01;;;;;;;6.00;4.50;;;1.40;57.40;;;0.96;54.50;98471.97;4979035;28;20460;-72
2023/04/05 06:46:28;;;;;;;5.23;4.00;;;1.50;57.00;;;1.45;54.45;98487.03;4959794;28;20883;-72
2023/04/05 06:48:55;;;;;;;6.00;4.10;;;1.60;57.50;;;1.55;54.41;98487.81;4984920;28;20503;-73
2023/04/05 06:51:24;;;;;;;6.60;4.80;;;1.90;57.00;;;2.01;53.37;98489.69;4982247;28;20538;-73
2023/04/05 06:53:51;;;;;;;5.93;4.97;;;2.10;57.20;;;2.01;52.66;98479.03;4981810;28;20468;-74
2023/04/05 06:56:20;;;;;;;4.70;3.80;;;2.30;56.20;;;2.02;52.45;98472.72;4981527;28;20971;-74
2023/04/05 06:58:48;;;;;;;5.87;5.17;;;2.30;55.50;;;2.08;52.27;98488.13;4958970;28;20825;-73
2023/04/05 07:01:16;;;;;;;5.30;4.80;;;2.40;55.00;;;1.95;52.22;98486.66;4958884;28;20515;-76
2023/04/05 07:03:44;;;;;;;7.80;4.50;;;2.40;54.70;;;2.18;52.04;98488.06;4981959;28;20463;-75
2023/04/05 07:06:11;;;;;;;8.10;4.37;;;2.40;54.70;;;2.08;51.65;98482.78;4977429;28;21128;-75
2023/04/05 07:08:39;;;;;;;4.87;4.30;;;2.50;54.30;;;2.08;52.19;98488.13;4981458;28;20457;-74
2023/04/05 07:11:06;;;;;;;5.97;4.60;;;2.50;54.10;;;2.11;51.45;98482.50;4979981;28;20463;-75
2023/04/05 07:13:35;;;;;;;6.23;4.90;;;2.60;53.70;;;2.03;51.40;98479.72;4961686;28;20836;-77
2023/04/05 07:16:03;;;;;;;6.03;4.03;;;2.50;53.30;;;2.35;51.09;98478.38;4957556;28;20467;-73
2023/04/05 07:18:31;;;;;;;5.80;4.03;;;2.60;53.50;;;2.32;50.90;98473.38;4965619;28;20523;-73
2023/04/05 07:21:02;;;;;;;5.43;4.20;;;2.60;53.10;;;2.53;50.97;98465.91;4979486;28;20482;-74
2023/04/05 07:23:30;;;;;;;8.60;4.10;;;2.70;53.40;;;2.88;50.33;98473.19;4975324;28;20468;-74
2023/04/05 07:26:03;;;;;;;7.50;4.30;;;2.90;53.20;;;2.94;50.25;98468.09;4956502;28;20578;-73
2023/04/05 07:28:31;;;;;;;6.90;5.00;;;3.00;52.80;;;3.24;49.48;98471.28;4984976;28;20452;-76
2023/04/05 07:31:00;;;;;;;8.07;4.57;;;3.30;52.80;;;2.77;49.41;98471.63;4973560;28;20518;-74
2023/04/05 07:33:27;;;;;;;9.00;5.70;;;3.20;51.60;;;2.66;49.67;98459.34;4994446;28;20551;-72
2023/04/05 07:35:55;;;;;;;7.20;4.50;;;3.10;51.50;;;2.63;50.65;98460.50;4989348;28;20456;-74
2023/04/05 07:38:23;;;;;;;6.63;3.90;;;3.00;52.00;;;2.54;50.02;98461.41;4967747;28;20487;-73
2023/04/05 07:40:50;;;;;;;5.60;4.27;;;2.80;51.70;;;2.55;49.73;98453.25;4970823;28;20539;-74
2023/04/05 07:43:18;;;;;;;5.87;4.70;;;2.90;51.60;;;3.14;48.93;98456.38;4981945;28;20543;-73
2023/04/05 07:45:46;;;;;;;5.30;4.63;;;3.10;52.00;;;2.87;49.55;98455.50;4978345;28;20542;-74
2023/04/05 07:48:14;;;;;;;9.37;4.80;;;3.20;51.60;;;2.91;50.11;98460.38;4990420;28;20464;-74
2023/04/05 07:50:46;;;;;;;5.37;4.70;;;3.10;52.00;;;2.75;49.52;98469.09;4967795;28;20449;-73
2023/04/05 07:53:14;;;;;;;5.60;4.63;;;3.10;51.40;;;2.60;49.04;98462.63;4981092;28;20460;-73
2023/04/05 07:55:41;;;;;;;5.17;4.50;;;3.00;50.60;;;2.82;49.60;98453.31;4963940;28;20481;-75
2023/04/05 07:58:09;;;;;;;6.47;4.63;;;3.00;51.10;;;3.12;48.49;98464.53;4987293;28;20456;-76
2023/04/05 08:00:37;;;;;;;7.97;4.97;;;3.20;51.00;;;3.30;47.97;98451.13;4992592;28;20445;-71
2023/04/05 08:03:04;;;;;;;9.70;4.70;;;3.40;50.40;;;3.18;48.07;98450.53;4970447;28;20455;-73
2023/04/05 08:05:33;;;;;;;7.23;4.03;;;3.40;49.70;;;3.68;46.74;98454.31;4986434;28;20476;-79
2023/04/05 08:08:00;;;;;;;7.70;3.60;;;3.60;49.70;;;3.47;46.65;98452.03;4984207;28;20471;-75
2023/04/05 08:10:27;;;;;;;5.37;3.57;;;3.60;48.60;;;3.88;45.59;98455.91;4988423;28;20488;-74
2023/04/05 08:12:55;;;;;;;4.63;4.13;;;3.70;48.50;;;3.82;44.27;98460.06;4985730;28;20452;-78
2023/04/05 08:15:22;;;;;;;6.50;4.13;;;3.90;47.60;;;3.77;45.10;98457.84;4984627;28;21070;-73
2023/04/05 08:17:49;;;;;;;3.77;3.33;;;3.90;47.10;;;4.04;44.47;98447.09;4985018;28;20534;-77
2023/04/05 08:20:16;;;;;;;6.17;4.80;;;4.10;47.20;;;4.15;44.82;98451.31;4989517;28;20460;-73
2023/04/05 08:22:45;;;;;;;6.80;3.53;;;4.20;47.40;;;4.27;43.75;98446.47;4983263;28;20451;-78
2023/04/05 08:25:12;;;;;;;4.33;3.40;;;4.30;46.70;;;4.70;43.39;98444.50;4979568;28;20469;-76
2023/04/05 08:27:40;;;;;;;9.33;4.07;;;4.60;46.30;;;4.45;44.03;98444.50;4988131;28;20525;-76
2023/04/05 08:30:09;;;;;;;4.90;3.60;;;4.60;46.10;;;4.51;43.55;98437.63;4984570;28;20464;-76
2023/04/05 08:32:36;;;;;;;7.40;4.10;;;4.60;45.90;;;4.33;44.04;98437.81;4986628;28;20461;-75
2023/04/05 08:35:04;;;;;;;4.03;3.33;;;4.60;46.00;;;4.49;42.73;98434.31;4982339;28;20471;-74
2023/04/05 08:37:34;;;;;;;5.03;3.90;;;4.60;45.20;;;4.79;41.75;98435.50;4985765;28;20969;-77
2023/04/05 08:40:04;;;;;;;5.63;3.70;;;4.70;44.90;;;5.16;41.13;98435.09;4988599;28;20464;-79
2023/04/05 08:42:37;;;;;;;5.00;3.40;;;5.00;44.60;;;5.60;40.49;98441.84;4970212;28;20448;-73
2023/04/05 08:45:05;;;;;;;4.17;3.37;;;5.40;44.10;;;5.28;39.79;98438.25;4967223;28;20461;-74
2023/04/05 08:47:37;;;;;;;4.97;3.63;;;5.50;42.60;;;5.67;38.32;98448.19;4984740;28;20590;-73
2023/04/05 08:50:06;;;;;;;6.03;4.00;;;5.80;42.50;;;6.00;37.75;98441.88;4985083;28;20887;-76
2023/04/05 08:52:36;;;;;;;4.23;3.10;;;6.00;41.80;;;6.50;36.98;98431.69;4982486;28;20552;-75
2023/04/05 08:55:07;;;;;;;4.90;3.50;;;6.40;41.00;;;6.98;35.35;98428.78;4970704;28;20457;-74
2023/04/05 08:57:39;;;;;;;4.90;3.50;;;6.80;40.10;;;6.62;35.82;98432.09;4991270;28;20486;-77
2023/04/05 09:00:10;;;;;;;5.13;3.77;;;6.90;39.40;;;6.07;37.16;98437.50;4988167;28;20469;-74
2023/04/05 09:02:38;;;;;;;4.40;4.00;;;6.50;39.60;;;6.47;36.51;98432.88;4986381;28;20553;-79
2023/04/05 09:05:10;;;;;;;7.10;4.00;;;6.50;39.60;;;6.14;36.38;98441.16;4971236;28;20463;-76
2023/04/05 09:07:40;;;;;;;6.10;4.00;;;6.30;38.90;;;6.82;35.16;98434.28;4983107;28;20482;-77
2023/04/05 09:10:09;;;;;;;5.50;3.80;;;6.60;38.90;;;6.95;34.59;98429.16;4965409;28;20448;-74
2023/04/05 09:12:37;;;;;;;3.73;3.30;;;6.80;38.70;;;6.65;34.80;98432.56;4988125;28;20797;-75
2023/04/05 09:15:06;;;;;;;4.67;3.77;;;6.80;38.10;;;6.74;34.84;98432.50;4971554;28;20797;-74
2023/04/05 09:17:33;;;;;;;4.03;3.63;;;6.80;38.00;;;7.28;34.10;98439.56;4982423;28;20472;-73
2023/04/05 09:20:01;;;;;;;4.43;3.50;;;7.00;38.00;;;7.56;33.72;98436.25;4987219;28;20457;-73
2023/04/05 09:22:29;;;;;;;4.70;3.60;;;7.30;37.70;;;7.40;34.02;98436.44;4963434;28;20974;-77
2023/04/05 09:24:56;;;;;;;5.30;3.73;;;7.40;37.50;;;7.94;33.43;98436.09;4965592;28;20786;-74
2023/04/05 09:27:24;;;;;;;3.80;3.50;;;7.60;37.60;;;8.08;32.27;98428.19;4981739;28;20498;-73
2023/04/05 09:29:52;;;;;;;4.40;3.23;;;8.00;36.90;;;8.24;32.39;98427.16;4971385;28;20446;-74
2023/04/05 09:32:20;;;;;;;3.70;3.40;;;8.10;36.60;;;7.84;32.85;98432.91;4984045;28;20472;-74
2023/04/05 09:34:47;;;;;;;5.47;3.93;;;8.10;36.70;;;7.90;32.41;98432.13;4986004;28;20926;-76
2023/04/05 09:37:18;;;;;;;8.17;4.80;;;8.10;36.30;;;7.08;33.48;98426.66;4983417;28;20457;-74
2023/04/05 09:39:48;;;;;;;4.80;4.30;;;7.60;35.90;;;7.28;32.75;98431.50;4971982;28;20462;-78
2023/04/05 09:42:18;;;;;;;4.83;4.10;;;7.40;35.90;;;7.26;33.23;98432.69;4989720;28;20444;-76
2023/04/05 09:45:08;;;;;;;5.97;4.90;;;7.30;36.30;;;7.03;33.37;98422.84;4980878;28;20470;-78
2023/04/05 09:47:36;;;;;;;9.27;4.33;;;7.20;36.10;;;7.35;33.69;98429.78;4961576;28;20478;-74
2023/04/05 09:50:19;;;;;;;5.90;4.43;;;7.30;36.40;;;7.88;32.85;98426.13;4989104;28;20533;-75
2023/04/05 09:52:48;;;;;;;4.80;4.13;;;7.80;36.90;;;8.35;32.49;98418.56;4987530;28;20470;-74
2023/04/05 09:55:27;;;;;;;8.10;4.47;;;8.10;36.40;;;8.61;31.45;98413.66;4966039;28;20470;-74
2023/04/05 09:57:54;;;;;;;4.87;4.47;;;8.50;35.90;;;8.20;31.66;98424.00;4980188;28;20807;-77
2023/04/05 10:00:23;;;;;;;4.60;3.87;;;8.50;35.60;;;8.31;33.28;98419.97;4988779;28;20450;-73
2023/04/05 10:02:54;;;;;;;5.30;3.90;;;8.40;36.50;;;8.36;32.85;98425.63;4969654;28;21187;-72
2023/04/05 10:05:25;;;;;;;4.83;4.30;;;8.30;36.60;;;8.42;32.77;98420.50;4988286;28;20469;-77
2023/04/05 10:07:52;;;;;;;5.40;4.87;;;8.40;36.30;;;8.42;32.17;98429.41;4984321;28;21277;-74
2023/04/05 10:10:22;;;;;;;4.43;4.00;;;8.60;36.20;;;8.19;32.70;98410.75;4986943;28;20569;-76
2023/04/05 10:12:51;;;;;;;6.10;4.60;;;8.50;35.90;;;8.32;31.85;98410.03;4967384;28;20781;-75
2023/04/05 10:15:18;;;;;;;5.67;4.57;;;8.50;35.70;;;8.96;31.89;98402.16;4981754;28;20478;-74
2023/04/05 10:17:54;;;;;;;7.33;4.90;;;8.70;35.60;;;9.32;31.80;98414.63;4985408;28;20522;-76
2023/04/05 10:20:23;;;;;;;5.87;4.20;;;8.90;36.20;;;9.52;30.38;98417.47;4970467;28;21026;-74
2023/04/05 10:23:11;;;;;;;4.37;4.00;;;9.40;35.30;;;9.76;30.36;98408.03;4981472;28;20470;-75
2023/04/05 10:25:53;;;;;;;4.70;4.30;;;9.50;35.30;;;9.19;30.99;98407.31;4980748;28;20463;-76
2023/04/05 10:28:31;;;;;;;4.47;4.07;;;9.30;35.10;;;8.49;30.85;98403.38;4965136;28;20510;-73
2023/04/05 10:31:10;;;;;;;6.37;4.63;;;8.80;34.60;;;7.62;32.40;98413.97;4980511;28;20957;-74
2023/04/05 10:33:45;;;;;;;4.90;4.43;;;8.20;34.90;;;7.32;33.58;98411.28;4969980;28;20481;-73
2023/04/05 10:36:22;;;;;;;5.20;4.43;;;7.60;35.40;;;7.32;33.50;98403.22;4987256;28;20450;-71